createdAt,value
2016-10-15T00:00:23.679Z,0
2016-10-15T00:01:22.942Z,0
2016-10-15T00:02:22.337Z,0
2016-10-15T00:03:21.501Z,0
2016-10-15T00:04:24.791Z,0
2016-10-15T00:05:22.285Z,0
2016-10-15T00:06:21.543Z,0
2016-10-15T00:07:23.595Z,0
2016-10-15T00:08:23.444Z,0
2016-10-15T00:09:22.962Z,0
2016-10-15T00:10:22.442Z,0
2016-10-15T00:11:23.098Z,0
2016-10-15T00:12:22.544Z,0
2016-10-15T00:13:23.021Z,0
2016-10-15T00:14:22.591Z,0
2016-10-15T00:15:21.816Z,0
2016-10-15T00:16:23.356Z,0
2016-10-15T00:17:22.823Z,0
2016-10-15T00:18:23.549Z,0
2016-10-15T00:19:23.893Z,0
2016-10-15T00:20:23.907Z,0
2016-10-15T00:21:22.638Z,0
2016-10-15T00:22:22.723Z,0
2016-10-15T00:23:24.635Z,0
2016-10-15T00:24:22.828Z,0
2016-10-15T00:25:23.946Z,0
2016-10-15T00:26:21.629Z,0
2016-10-15T00:27:22.995Z,0
2016-10-15T00:28:23.331Z,0
2016-10-15T00:29:22.287Z,0
2016-10-15T00:30:21.946Z,0
2016-10-15T00:31:22.628Z,0
2016-10-15T00:32:21.828Z,0
2016-10-15T00:33:21.617Z,0
2016-10-15T00:34:22.598Z,0
2016-10-15T00:35:24.246Z,0
2016-10-15T00:36:22.361Z,0
2016-10-15T00:37:23.770Z,0
2016-10-15T00:38:22.354Z,0
2016-10-15T00:39:23.285Z,0
2016-10-15T00:40:22.825Z,0
2016-10-15T00:41:23.265Z,0
2016-10-15T00:42:23.740Z,0
2016-10-15T00:43:21.863Z,0
2016-10-15T00:44:23.021Z,0
2016-10-15T00:45:23.164Z,0
2016-10-15T00:46:23.527Z,0
2016-10-15T00:47:23.458Z,0
2016-10-15T00:48:21.823Z,0
2016-10-15T00:49:23.432Z,0
2016-10-15T00:50:23.777Z,0
2016-10-15T00:51:22.753Z,0
2016-10-15T00:52:23.625Z,0
2016-10-15T00:53:23.418Z,0
2016-10-15T00:54:24.125Z,0
2016-10-15T00:55:23.221Z,0
2016-10-15T00:56:23.068Z,0
2016-10-15T00:57:23.868Z,0
2016-10-15T00:58:23.559Z,0
2016-10-15T00:59:23.364Z,0
2016-10-15T01:00:22.600Z,0
2016-10-15T01:01:22.894Z,0
2016-10-15T01:02:23.632Z,0
2016-10-15T01:03:23.159Z,0
2016-10-15T01:04:23.757Z,0
2016-10-15T01:05:25.259Z,0
2016-10-15T01:06:23.106Z,0
2016-10-15T01:07:23.291Z,0
2016-10-15T01:08:23.402Z,0
2016-10-15T01:09:25.441Z,0
2016-10-15T01:10:25.014Z,0
2016-10-15T01:11:24.284Z,0
2016-10-15T01:12:23.766Z,0
2016-10-15T01:13:24.042Z,0
2016-10-15T01:14:23.408Z,0
2016-10-15T01:15:24.211Z,0
2016-10-15T01:16:24.597Z,0
2016-10-15T01:17:24.533Z,0
2016-10-15T01:18:24.334Z,0
2016-10-15T01:19:24.375Z,0
2016-10-15T01:20:23.803Z,0
2016-10-15T01:21:25.123Z,0
2016-10-15T01:22:23.752Z,0
2016-10-15T01:23:23.399Z,0
2016-10-15T01:24:24.225Z,0
2016-10-15T01:25:23.611Z,0
2016-10-15T01:26:23.804Z,0
2016-10-15T01:27:24.717Z,0
2016-10-15T01:28:25.374Z,0
2016-10-15T01:29:24.660Z,0
2016-10-15T01:30:23.787Z,0
2016-10-15T01:31:25.440Z,0
2016-10-15T01:32:23.185Z,0
2016-10-15T01:33:24.548Z,0
2016-10-15T01:34:22.592Z,0
2016-10-15T01:35:24.274Z,0
2016-10-15T01:36:24.935Z,0
2016-10-15T01:37:23.437Z,0
2016-10-15T01:38:23.789Z,0
2016-10-15T01:39:23.036Z,0
2016-10-15T01:40:22.952Z,0
2016-10-15T01:41:25.121Z,0
2016-10-15T01:42:25.554Z,0
2016-10-15T01:43:26.113Z,0
2016-10-15T01:44:23.084Z,0
2016-10-15T01:45:23.788Z,0
2016-10-15T01:46:24.846Z,0
2016-10-15T01:47:24.213Z,0
2016-10-15T01:48:26.416Z,0
2016-10-15T01:49:25.395Z,0
2016-10-15T01:50:24.790Z,0
2016-10-15T01:51:24.373Z,0
2016-10-15T01:52:27.609Z,0
2016-10-15T01:53:24.596Z,0
2016-10-15T01:54:25.626Z,0
2016-10-15T01:55:23.977Z,0
2016-10-15T01:56:25.954Z,0
2016-10-15T01:57:24.491Z,0
2016-10-15T01:58:23.847Z,0
2016-10-15T01:59:23.591Z,0
2016-10-15T02:00:24.668Z,0
2016-10-15T02:01:24.451Z,0
2016-10-15T02:02:23.744Z,0
2016-10-15T02:03:24.738Z,0
2016-10-15T02:04:25.728Z,0
2016-10-15T02:05:23.949Z,0
2016-10-15T02:06:22.912Z,0
2016-10-15T02:07:25.420Z,0
2016-10-15T02:08:24.246Z,0
2016-10-15T02:09:23.867Z,0
2016-10-15T02:10:24.123Z,0
2016-10-15T02:11:25.372Z,0
2016-10-15T02:12:25.123Z,0
2016-10-15T02:13:24.080Z,0
2016-10-15T02:14:25.348Z,0
2016-10-15T02:15:24.861Z,0
2016-10-15T02:16:24.732Z,0
2016-10-15T02:17:25.651Z,0
2016-10-15T02:18:24.512Z,0
2016-10-15T02:19:24.441Z,0
2016-10-15T02:20:25.493Z,0
2016-10-15T02:21:24.466Z,0
2016-10-15T02:22:24.306Z,0
2016-10-15T02:23:24.648Z,0
2016-10-15T02:24:24.776Z,0
2016-10-15T02:25:25.274Z,0
2016-10-15T02:26:25.316Z,0
2016-10-15T02:27:25.073Z,0
2016-10-15T02:28:24.270Z,0
2016-10-15T02:29:23.780Z,0
2016-10-15T02:30:24.559Z,0
2016-10-15T02:31:25.572Z,0
2016-10-15T02:32:32.072Z,0
2016-10-15T02:33:24.883Z,0
2016-10-15T02:34:25.990Z,0
2016-10-15T02:35:25.206Z,0
2016-10-15T02:36:24.383Z,0
2016-10-15T02:37:23.458Z,0
2016-10-15T02:38:24.395Z,0
2016-10-15T02:39:25.036Z,0
2016-10-15T02:40:25.282Z,0
2016-10-15T02:41:25.099Z,0
2016-10-15T02:42:25.696Z,0
2016-10-15T02:43:24.737Z,0
2016-10-15T02:44:25.217Z,0
2016-10-15T02:45:25.258Z,0
2016-10-15T02:46:24.348Z,0
2016-10-15T02:47:24.583Z,0
2016-10-15T02:48:25.557Z,0
2016-10-15T02:49:25.201Z,0
2016-10-15T02:50:24.251Z,0
2016-10-15T02:51:24.765Z,0
2016-10-15T02:52:26.185Z,0
2016-10-15T02:53:26.165Z,0
2016-10-15T02:54:25.056Z,0
2016-10-15T02:55:25.977Z,0
2016-10-15T02:56:25.182Z,0
2016-10-15T02:57:25.261Z,0
2016-10-15T02:58:25.446Z,0
2016-10-15T02:59:25.485Z,0
2016-10-15T03:00:24.587Z,0
2016-10-15T03:01:24.913Z,0
2016-10-15T03:02:25.445Z,0
2016-10-15T03:03:25.447Z,0
2016-10-15T03:04:25.158Z,0
2016-10-15T03:05:25.504Z,0
2016-10-15T03:06:25.532Z,0
2016-10-15T03:07:26.331Z,0
2016-10-15T03:08:24.982Z,0
2016-10-15T03:09:25.100Z,0
2016-10-15T03:10:25.016Z,0
2016-10-15T03:11:26.185Z,0
2016-10-15T03:12:25.625Z,0
2016-10-15T03:13:25.882Z,0
2016-10-15T03:14:26.146Z,0
2016-10-15T03:15:25.840Z,0
2016-10-15T03:16:25.171Z,0
2016-10-15T03:17:26.548Z,0
2016-10-15T03:18:26.469Z,0
2016-10-15T03:19:25.295Z,0
2016-10-15T03:20:25.870Z,0
2016-10-15T03:21:25.760Z,0
2016-10-15T03:22:26.915Z,0
2016-10-15T03:23:26.413Z,0
2016-10-15T03:24:25.051Z,0
2016-10-15T03:25:25.113Z,0
2016-10-15T03:26:26.089Z,0
2016-10-15T03:27:25.941Z,0
2016-10-15T03:28:26.860Z,0
2016-10-15T03:29:26.266Z,0
2016-10-15T03:30:26.565Z,0
2016-10-15T03:31:25.408Z,0
2016-10-15T03:32:25.891Z,0
2016-10-15T03:33:25.513Z,0
2016-10-15T03:34:25.432Z,0
2016-10-15T03:35:26.700Z,0
2016-10-15T03:36:27.457Z,0
2016-10-15T03:37:25.494Z,0
2016-10-15T03:38:25.364Z,0
2016-10-15T03:39:26.444Z,0
2016-10-15T03:40:26.284Z,0
2016-10-15T03:41:27.453Z,0
2016-10-15T03:42:25.763Z,0
2016-10-15T03:43:25.975Z,0
2016-10-15T03:44:26.365Z,0
2016-10-15T03:45:26.930Z,0
2016-10-15T03:46:27.742Z,0
2016-10-15T03:47:25.388Z,0
2016-10-15T03:48:26.635Z,0
2016-10-15T03:49:27.358Z,0
2016-10-15T03:50:26.481Z,0
2016-10-15T03:51:26.579Z,0
2016-10-15T03:52:27.789Z,0
2016-10-15T03:53:25.940Z,0
2016-10-15T03:54:25.532Z,0
2016-10-15T03:55:26.718Z,0
2016-10-15T03:56:25.885Z,0
2016-10-15T03:57:26.052Z,0
2016-10-15T03:58:26.208Z,0
2016-10-15T03:59:25.881Z,0
2016-10-15T04:00:25.509Z,0
2016-10-15T04:01:26.164Z,0
2016-10-15T04:02:26.488Z,0
2016-10-15T04:03:28.093Z,0
2016-10-15T04:04:25.765Z,0
2016-10-15T04:05:26.374Z,0
2016-10-15T04:06:25.700Z,0
2016-10-15T04:07:25.579Z,0
2016-10-15T04:08:26.793Z,0
2016-10-15T04:09:27.550Z,0
2016-10-15T04:10:26.041Z,0
2016-10-15T04:11:26.280Z,0
2016-10-15T04:12:26.090Z,0
2016-10-15T04:13:26.347Z,0
2016-10-15T04:14:25.944Z,0
2016-10-15T04:15:27.446Z,0
2016-10-15T04:16:26.582Z,0
2016-10-15T04:17:26.860Z,0
2016-10-15T04:18:25.448Z,0
2016-10-15T04:19:25.550Z,0
2016-10-15T04:20:27.059Z,0
2016-10-15T04:21:27.433Z,0
2016-10-15T04:22:27.075Z,0
2016-10-15T04:23:26.506Z,0
2016-10-15T04:24:26.785Z,0
2016-10-15T04:25:26.110Z,0
2016-10-15T04:26:26.873Z,0
2016-10-15T04:27:27.378Z,0
2016-10-15T04:28:26.678Z,0
2016-10-15T04:29:26.033Z,0
2016-10-15T04:30:26.217Z,0
2016-10-15T04:31:27.795Z,0
2016-10-15T04:32:25.942Z,0
2016-10-15T04:33:26.239Z,0
2016-10-15T04:34:28.184Z,0
2016-10-15T04:35:26.621Z,0
2016-10-15T04:36:26.422Z,0
2016-10-15T04:37:28.382Z,0
2016-10-15T04:38:26.855Z,0
2016-10-15T04:39:26.805Z,0
2016-10-15T04:40:28.274Z,0
2016-10-15T04:41:26.172Z,0
2016-10-15T04:42:25.777Z,0
2016-10-15T04:43:26.645Z,0
2016-10-15T04:44:26.822Z,0
2016-10-15T04:45:26.630Z,0
2016-10-15T04:46:27.944Z,0
2016-10-15T04:47:27.199Z,0
2016-10-15T04:48:27.723Z,0
2016-10-15T04:49:26.950Z,0
2016-10-15T04:50:27.589Z,0
2016-10-15T04:51:26.233Z,0
2016-10-15T04:52:27.703Z,0
2016-10-15T04:53:28.916Z,0
2016-10-15T04:54:27.113Z,0
2016-10-15T04:55:27.004Z,0
2016-10-15T04:56:26.856Z,0
2016-10-15T04:57:26.912Z,0
2016-10-15T04:58:29.018Z,0
2016-10-15T04:59:27.047Z,0
2016-10-15T05:00:28.046Z,0
2016-10-15T05:01:28.248Z,0
2016-10-15T05:02:26.582Z,0
2016-10-15T05:03:26.718Z,0
2016-10-15T05:04:28.942Z,0
2016-10-15T05:05:28.450Z,0
2016-10-15T05:06:27.368Z,0
2016-10-15T05:07:29.078Z,0
2016-10-15T05:08:26.927Z,0
2016-10-15T05:09:30.057Z,0
2016-10-15T05:10:27.523Z,0
2016-10-15T05:11:28.048Z,0
2016-10-15T05:12:27.036Z,0
2016-10-15T05:13:28.575Z,0
2016-10-15T05:14:27.073Z,0
2016-10-15T05:15:28.051Z,0
2016-10-15T05:16:28.855Z,0
2016-10-15T05:17:26.896Z,0
2016-10-15T05:18:28.215Z,4
2016-10-15T05:19:29.150Z,4
2016-10-15T05:20:28.779Z,4
2016-10-15T05:21:27.044Z,4
2016-10-15T05:22:28.138Z,4
2016-10-15T05:23:26.719Z,8
2016-10-15T05:24:28.329Z,8
2016-10-15T05:25:27.648Z,8
2016-10-15T05:26:28.519Z,12
2016-10-15T05:27:28.729Z,16
2016-10-15T05:28:28.287Z,16
2016-10-15T05:29:32.025Z,20
2016-10-15T05:30:28.198Z,20
2016-10-15T05:31:27.442Z,28
2016-10-15T05:32:27.666Z,28
2016-10-15T05:33:28.285Z,36
2016-10-15T05:34:29.026Z,44
2016-10-15T05:35:28.185Z,48
2016-10-15T05:36:27.782Z,56
2016-10-15T05:37:27.883Z,64
2016-10-15T05:38:28.176Z,76
2016-10-15T05:39:27.780Z,88
2016-10-15T05:40:28.119Z,96
2016-10-15T05:41:28.222Z,108
2016-10-15T05:42:26.731Z,124
2016-10-15T05:43:28.090Z,140
2016-10-15T05:44:27.807Z,152
2016-10-15T05:45:26.669Z,172
2016-10-15T05:46:27.782Z,188
2016-10-15T05:47:27.351Z,204
2016-10-15T05:48:27.401Z,220
2016-10-15T05:49:29.645Z,236
2016-10-15T05:50:28.733Z,252
2016-10-15T05:51:27.928Z,272
2016-10-15T05:52:28.643Z,292
2016-10-15T05:53:28.241Z,312
2016-10-15T05:54:28.072Z,336
2016-10-15T05:55:26.691Z,356
2016-10-15T05:56:27.523Z,376
2016-10-15T05:57:27.519Z,404
2016-10-15T05:58:27.544Z,428
2016-10-15T05:59:29.096Z,456
2016-10-15T06:00:28.807Z,484
2016-10-15T06:01:27.950Z,516
2016-10-15T06:02:28.617Z,552
2016-10-15T06:03:27.870Z,596
2016-10-15T06:04:27.997Z,644
2016-10-15T06:05:27.556Z,696
2016-10-15T06:06:29.282Z,752
2016-10-15T06:07:28.445Z,804
2016-10-15T06:08:28.087Z,856
2016-10-15T06:09:28.006Z,904
2016-10-15T06:10:27.683Z,948
2016-10-15T06:11:27.568Z,996
2016-10-15T06:12:29.849Z,1044
2016-10-15T06:13:27.417Z,1088
2016-10-15T06:14:29.278Z,1140
2016-10-15T06:15:27.995Z,1184
2016-10-15T06:16:29.232Z,1236
2016-10-15T06:17:28.412Z,1288
2016-10-15T06:18:28.642Z,1340
2016-10-15T06:19:28.861Z,1392
2016-10-15T06:20:28.870Z,1436
2016-10-15T06:21:28.915Z,1476
2016-10-15T06:22:27.984Z,1500
2016-10-15T06:23:31.336Z,1520
2016-10-15T06:24:27.872Z,1532
2016-10-15T06:25:29.295Z,1548
2016-10-15T06:26:28.102Z,1564
2016-10-15T06:27:30.140Z,1580
2016-10-15T06:28:28.883Z,1592
2016-10-15T06:29:28.294Z,1612
2016-10-15T06:30:28.856Z,1620
2016-10-15T06:31:28.700Z,1632
2016-10-15T06:32:28.666Z,1644
2016-10-15T06:33:27.568Z,1664
2016-10-15T06:34:28.825Z,1688
2016-10-15T06:35:29.171Z,1748
2016-10-15T06:36:28.056Z,1836
2016-10-15T06:37:28.419Z,1956
2016-10-15T06:38:28.721Z,2140
2016-10-15T06:39:29.452Z,2476
2016-10-15T06:40:28.994Z,2568
2016-10-15T06:41:28.796Z,2576
2016-10-15T06:42:29.562Z,2740
2016-10-15T06:43:29.207Z,2956
2016-10-15T06:44:28.094Z,3200
2016-10-15T06:45:28.004Z,3460
2016-10-15T06:46:28.920Z,3504
2016-10-15T06:47:29.599Z,3748
2016-10-15T06:48:28.725Z,4020
2016-10-15T06:49:28.928Z,4348
2016-10-15T06:50:29.430Z,4404
2016-10-15T06:51:29.622Z,4724
2016-10-15T06:52:29.212Z,4608
2016-10-15T06:53:29.787Z,4816
2016-10-15T06:54:28.618Z,5180
2016-10-15T06:55:30.483Z,5380
2016-10-15T06:56:29.976Z,5944
2016-10-15T06:57:29.738Z,6492
2016-10-15T06:58:29.939Z,6440
2016-10-15T06:59:28.456Z,6448
2016-10-15T07:00:28.386Z,6544
2016-10-15T07:01:28.887Z,6460
2016-10-15T07:02:28.494Z,6192
2016-10-15T07:03:28.371Z,6640
2016-10-15T07:04:28.745Z,7248
2016-10-15T07:05:28.484Z,7352
2016-10-15T07:06:29.698Z,8128
2016-10-15T07:07:29.131Z,8576
2016-10-15T07:08:29.394Z,8340
2016-10-15T07:09:30.269Z,7796
2016-10-15T07:10:30.243Z,8060
2016-10-15T07:11:29.755Z,8136
2016-10-15T07:12:28.236Z,7892
2016-10-15T07:13:28.457Z,7816
2016-10-15T07:14:28.346Z,7932
2016-10-15T07:15:28.830Z,7416
2016-10-15T07:16:28.889Z,8184
2016-10-15T07:17:28.911Z,8548
2016-10-15T07:18:29.802Z,8676
2016-10-15T07:19:29.349Z,8604
2016-10-15T07:20:30.312Z,8596
2016-10-15T07:21:29.363Z,8420
2016-10-15T07:22:28.944Z,8604
2016-10-15T07:23:29.353Z,9480
2016-10-15T07:24:28.769Z,9096
2016-10-15T07:25:29.575Z,8560
2016-10-15T07:26:30.368Z,7456
2016-10-15T07:27:29.523Z,7856
2016-10-15T07:28:29.794Z,7756
2016-10-15T07:29:30.205Z,6920
2016-10-15T07:30:29.847Z,6704
2016-10-15T07:31:30.819Z,6760
2016-10-15T07:32:29.456Z,5580
2016-10-15T07:33:31.342Z,5012
2016-10-15T07:34:29.483Z,4796
2016-10-15T07:35:29.779Z,4848
2016-10-15T07:36:29.976Z,4908
2016-10-15T07:37:32.295Z,5252
2016-10-15T07:38:30.201Z,5608
2016-10-15T07:39:28.988Z,5244
2016-10-15T07:40:30.330Z,5488
2016-10-15T07:41:30.083Z,5312
2016-10-15T07:42:29.060Z,5612
2016-10-15T07:43:30.568Z,5908
2016-10-15T07:44:29.107Z,5996
2016-10-15T07:45:29.389Z,5860
2016-10-15T07:46:30.263Z,6096
2016-10-15T07:47:29.616Z,6328
2016-10-15T07:48:30.360Z,6928
2016-10-15T07:49:30.332Z,6996
2016-10-15T07:50:29.989Z,7284
2016-10-15T07:51:30.422Z,8372
2016-10-15T07:52:30.400Z,8784
2016-10-15T07:53:29.170Z,10016
2016-10-15T07:54:29.566Z,10840
2016-10-15T07:55:29.582Z,9888
2016-10-15T07:56:30.496Z,10736
2016-10-15T07:57:30.565Z,10636
2016-10-15T07:58:29.559Z,11156
2016-10-15T07:59:29.929Z,11068
2016-10-15T08:00:30.815Z,11852
2016-10-15T08:01:30.270Z,11248
2016-10-15T08:02:29.617Z,10376
2016-10-15T08:03:30.034Z,9036
2016-10-15T08:04:29.468Z,8728
2016-10-15T08:05:29.865Z,7100
2016-10-15T08:06:29.615Z,6168
2016-10-15T08:07:31.358Z,7240
2016-10-15T08:08:31.649Z,5972
2016-10-15T08:09:30.218Z,5040
2016-10-15T08:10:30.243Z,6524
2016-10-15T08:11:30.363Z,7596
2016-10-15T08:12:30.515Z,7300
2016-10-15T08:13:29.957Z,7524
2016-10-15T08:14:30.146Z,7052
2016-10-15T08:15:30.022Z,7016
2016-10-15T08:16:30.506Z,6908
2016-10-15T08:17:29.879Z,6476
2016-10-15T08:18:31.695Z,6388
2016-10-15T08:19:32.625Z,6352
2016-10-15T08:20:30.290Z,6396
2016-10-15T08:21:30.623Z,6232
2016-10-15T08:22:29.890Z,5740
2016-10-15T08:23:32.593Z,5388
2016-10-15T08:24:30.616Z,5464
2016-10-15T08:25:30.013Z,6124
2016-10-15T08:26:31.534Z,6332
2016-10-15T08:27:31.648Z,6160
2016-10-15T08:28:33.634Z,6140
2016-10-15T08:29:29.345Z,6480
2016-10-15T08:30:30.793Z,6864
2016-10-15T08:31:30.590Z,7304
2016-10-15T08:32:31.664Z,7408
2016-10-15T08:33:31.385Z,7868
2016-10-15T08:34:32.870Z,8412
2016-10-15T08:35:31.993Z,9160
2016-10-15T08:36:33.564Z,9624
2016-10-15T08:37:30.161Z,9956
2016-10-15T08:38:30.163Z,9612
2016-10-15T08:39:30.517Z,9508
2016-10-15T08:40:30.813Z,9432
2016-10-15T08:41:31.256Z,9824
2016-10-15T08:42:30.427Z,9124
2016-10-15T08:43:30.864Z,8416
2016-10-15T08:44:30.678Z,8036
2016-10-15T08:45:30.421Z,8044
2016-10-15T08:46:33.345Z,8384
2016-10-15T08:47:30.529Z,8516
2016-10-15T08:48:30.866Z,8116
2016-10-15T08:49:32.448Z,8504
2016-10-15T08:50:31.491Z,8276
2016-10-15T08:51:30.779Z,7400
2016-10-15T08:52:32.135Z,7148
2016-10-15T08:53:31.348Z,7440
2016-10-15T08:54:31.740Z,8028
2016-10-15T08:55:30.185Z,9392
2016-10-15T08:56:31.493Z,9552
2016-10-15T08:57:30.312Z,9252
2016-10-15T08:58:32.864Z,10272
2016-10-15T08:59:33.370Z,12304
2016-10-15T09:00:30.317Z,14176
2016-10-15T09:01:32.434Z,13692
2016-10-15T09:02:32.159Z,14836
2016-10-15T09:03:31.821Z,17824
2016-10-15T09:04:31.796Z,20768
2016-10-15T09:05:31.635Z,21952
2016-10-15T09:06:31.628Z,22240
2016-10-15T09:07:33.776Z,16832
2016-10-15T09:08:32.427Z,13444
2016-10-15T09:09:31.752Z,14632
2016-10-15T09:10:32.384Z,16084
2016-10-15T09:11:32.092Z,14732
2016-10-15T09:12:31.290Z,12860
2016-10-15T09:13:31.893Z,10432
2016-10-15T09:14:31.911Z,10328
2016-10-15T09:15:32.074Z,12952
2016-10-15T09:16:31.288Z,13460
2016-10-15T09:17:32.537Z,14564
2016-10-15T09:18:30.885Z,14548
2016-10-15T09:19:31.347Z,16328
2016-10-15T09:20:31.224Z,17472
2016-10-15T09:21:32.021Z,15952
2016-10-15T09:22:31.381Z,18144
2016-10-15T09:23:32.057Z,15980
2016-10-15T09:24:32.573Z,13240
2016-10-15T09:25:32.050Z,14160
2016-10-15T09:26:31.807Z,13572
2016-10-15T09:27:30.563Z,14940
2016-10-15T09:28:32.230Z,17824
2016-10-15T09:29:31.728Z,19968
2016-10-15T09:30:32.080Z,22304
2016-10-15T09:31:30.816Z,23008
2016-10-15T09:32:32.293Z,20672
2016-10-15T09:33:32.733Z,21312
2016-10-15T09:34:30.801Z,18816
2016-10-15T09:35:32.032Z,15264
2016-10-15T09:36:32.784Z,16076
2016-10-15T09:37:33.699Z,15460
2016-10-15T09:38:31.904Z,14396
2016-10-15T09:39:32.201Z,13644
2016-10-15T09:40:32.499Z,12752
2016-10-15T09:41:31.477Z,10984
2016-10-15T09:42:32.312Z,9032
2016-10-15T09:43:32.171Z,8512
2016-10-15T09:44:32.150Z,8312
2016-10-15T09:45:32.357Z,8548
2016-10-15T09:46:33.314Z,9412
2016-10-15T09:47:31.810Z,10932
2016-10-15T09:48:32.402Z,11688
2016-10-15T09:49:32.284Z,10120
2016-10-15T09:50:32.529Z,10168
2016-10-15T09:51:31.995Z,10428
2016-10-15T09:52:33.356Z,10668
2016-10-15T09:53:32.440Z,11272
2016-10-15T09:54:32.313Z,11696
2016-10-15T09:55:33.479Z,12956
2016-10-15T09:56:32.866Z,15268
2016-10-15T09:57:32.762Z,16348
2016-10-15T09:58:32.261Z,15060
2016-10-15T09:59:33.319Z,13300
2016-10-15T10:00:32.351Z,12080
2016-10-15T10:01:33.007Z,12200
2016-10-15T10:02:32.776Z,13352
2016-10-15T10:03:32.157Z,15344
2016-10-15T10:04:32.310Z,17120
2016-10-15T10:05:32.085Z,18240
2016-10-15T10:06:32.565Z,20576
2016-10-15T10:07:32.583Z,21472
2016-10-15T10:08:33.451Z,21536
2016-10-15T10:09:32.898Z,16800
2016-10-15T10:10:32.478Z,13860
2016-10-15T10:11:32.697Z,11236
2016-10-15T10:12:33.576Z,9672
2016-10-15T10:13:32.287Z,8752
2016-10-15T10:14:32.709Z,7660
2016-10-15T10:15:34.094Z,7072
2016-10-15T10:16:32.104Z,6852
2016-10-15T10:17:33.349Z,6804
2016-10-15T10:18:32.420Z,5956
2016-10-15T10:19:31.671Z,5608
2016-10-15T10:20:32.720Z,5712
2016-10-15T10:21:33.068Z,6276
2016-10-15T10:22:32.975Z,7752
2016-10-15T10:23:32.599Z,8644
2016-10-15T10:24:31.758Z,8484
2016-10-15T10:25:32.969Z,7836
2016-10-15T10:26:32.856Z,7360
2016-10-15T10:27:32.701Z,6856
2016-10-15T10:28:32.895Z,6108
2016-10-15T10:29:33.260Z,5612
2016-10-15T10:30:33.488Z,5396
2016-10-15T10:31:32.580Z,4968
2016-10-15T10:32:32.688Z,4792
2016-10-15T10:33:33.660Z,4640
2016-10-15T10:34:33.188Z,4440
2016-10-15T10:35:33.089Z,4452
2016-10-15T10:36:34.280Z,4392
2016-10-15T10:37:32.679Z,4524
2016-10-15T10:38:32.331Z,4532
2016-10-15T10:39:34.867Z,4396
2016-10-15T10:40:33.616Z,4284
2016-10-15T10:41:32.081Z,4224
2016-10-15T10:42:32.485Z,4016
2016-10-15T10:43:32.505Z,3916
2016-10-15T10:44:32.359Z,4032
2016-10-15T10:45:34.279Z,4164
2016-10-15T10:46:34.140Z,4352
2016-10-15T10:47:33.294Z,4596
2016-10-15T10:48:34.072Z,5004
2016-10-15T10:49:33.953Z,4924
2016-10-15T10:50:33.335Z,4540
2016-10-15T10:51:34.144Z,4280
2016-10-15T10:52:34.826Z,4168
2016-10-15T10:53:33.822Z,4252
2016-10-15T10:54:34.208Z,4296
2016-10-15T10:55:32.263Z,4500
2016-10-15T10:56:34.003Z,4556
2016-10-15T10:57:32.424Z,4344
2016-10-15T10:58:33.745Z,4428
2016-10-15T10:59:33.942Z,4472
2016-10-15T11:00:34.402Z,4332
2016-10-15T11:01:33.245Z,4236
2016-10-15T11:02:34.457Z,4308
2016-10-15T11:03:34.347Z,4504
2016-10-15T11:04:33.616Z,4644
2016-10-15T11:05:34.066Z,4888
2016-10-15T11:06:35.303Z,5336
2016-10-15T11:07:34.048Z,5372
2016-10-15T11:08:32.671Z,5212
2016-10-15T11:09:34.356Z,4916
2016-10-15T11:10:34.501Z,4472
2016-10-15T11:11:35.050Z,4344
2016-10-15T11:12:33.305Z,4440
2016-10-15T11:13:33.773Z,4708
2016-10-15T11:14:33.236Z,5024
2016-10-15T11:15:34.655Z,5804
2016-10-15T11:16:34.661Z,6708
2016-10-15T11:17:34.383Z,7076
2016-10-15T11:18:34.965Z,6964
2016-10-15T11:19:33.759Z,7044
2016-10-15T11:20:35.014Z,7268
2016-10-15T11:21:34.003Z,7864
2016-10-15T11:22:34.125Z,7720
2016-10-15T11:23:33.684Z,7536
2016-10-15T11:24:34.572Z,8236
2016-10-15T11:25:34.407Z,9432
2016-10-15T11:26:34.633Z,10776
2016-10-15T11:27:33.458Z,12608
2016-10-15T11:28:33.194Z,14220
2016-10-15T11:29:35.037Z,13920
2016-10-15T11:30:33.314Z,12420
2016-10-15T11:31:34.409Z,10816
2016-10-15T11:32:35.580Z,10292
2016-10-15T11:33:33.985Z,10212
2016-10-15T11:34:33.636Z,10548
2016-10-15T11:35:34.055Z,10816
2016-10-15T11:36:35.053Z,10708
2016-10-15T11:37:35.601Z,10344
2016-10-15T11:38:33.763Z,9416
2016-10-15T11:39:35.300Z,8672
2016-10-15T11:40:35.942Z,8544
2016-10-15T11:41:34.989Z,8304
2016-10-15T11:42:35.671Z,8288
2016-10-15T11:43:35.318Z,8184
2016-10-15T11:44:36.449Z,8088
2016-10-15T11:45:34.410Z,8364
2016-10-15T11:46:34.512Z,8148
2016-10-15T11:47:34.076Z,7336
2016-10-15T11:48:34.570Z,6648
2016-10-15T11:49:34.321Z,6240
2016-10-15T11:50:35.018Z,5844
2016-10-15T11:51:34.747Z,5540
2016-10-15T11:52:35.665Z,5508
2016-10-15T11:53:34.796Z,5656
2016-10-15T11:54:34.809Z,6136
2016-10-15T11:55:34.425Z,6176
2016-10-15T11:56:34.014Z,6228
2016-10-15T11:57:34.317Z,6476
2016-10-15T11:58:34.619Z,6880
2016-10-15T11:59:35.226Z,7056
2016-10-15T12:00:34.911Z,6936
2016-10-15T12:01:36.637Z,6932
2016-10-15T12:02:34.700Z,7068
2016-10-15T12:03:36.079Z,7000
2016-10-15T12:04:36.076Z,6564
2016-10-15T12:05:34.548Z,6028
2016-10-15T12:06:36.801Z,5412
2016-10-15T12:07:34.655Z,4956
2016-10-15T12:08:35.532Z,4732
2016-10-15T12:09:35.373Z,4780
2016-10-15T12:10:34.820Z,4872
2016-10-15T12:11:35.511Z,4948
2016-10-15T12:12:35.358Z,5104
2016-10-15T12:13:35.419Z,5364
2016-10-15T12:14:35.774Z,5540
2016-10-15T12:15:35.227Z,5624
2016-10-15T12:16:35.602Z,5424
2016-10-15T12:17:35.764Z,5632
2016-10-15T12:18:35.543Z,5496
2016-10-15T12:19:34.372Z,5124
2016-10-15T12:20:35.294Z,5112
2016-10-15T12:21:35.290Z,5508
2016-10-15T12:22:34.849Z,5808
2016-10-15T12:23:36.111Z,5624
2016-10-15T12:24:35.559Z,5188
2016-10-15T12:25:35.216Z,5072
2016-10-15T12:26:34.393Z,5804
2016-10-15T12:27:36.080Z,6432
2016-10-15T12:28:35.226Z,6308
2016-10-15T12:29:35.638Z,6936
2016-10-15T12:30:36.102Z,7536
2016-10-15T12:31:35.040Z,8380
2016-10-15T12:32:35.532Z,9032
2016-10-15T12:33:37.027Z,9292
2016-10-15T12:34:35.733Z,9224
2016-10-15T12:35:35.276Z,9008
2016-10-15T12:36:35.794Z,8348
2016-10-15T12:37:36.731Z,7412
2016-10-15T12:38:35.174Z,7160
2016-10-15T12:39:35.425Z,6808
2016-10-15T12:40:34.986Z,6148
2016-10-15T12:41:35.044Z,5928
2016-10-15T12:42:38.099Z,5628
2016-10-15T12:43:35.442Z,5392
2016-10-15T12:44:35.110Z,5148
2016-10-15T12:45:35.932Z,4896
2016-10-15T12:46:35.332Z,4924
2016-10-15T12:47:35.966Z,4888
2016-10-15T12:48:36.772Z,4740
2016-10-15T12:49:34.985Z,4368
2016-10-15T12:50:36.435Z,4104
2016-10-15T12:51:36.469Z,3996
2016-10-15T12:52:35.896Z,4172
2016-10-15T12:53:35.577Z,4468
2016-10-15T12:54:35.421Z,4616
2016-10-15T12:55:35.162Z,4684
2016-10-15T12:56:37.158Z,4528
2016-10-15T12:57:36.101Z,4528
2016-10-15T12:58:36.521Z,4256
2016-10-15T12:59:36.558Z,3776
2016-10-15T13:00:35.815Z,3392
2016-10-15T13:01:36.921Z,3240
2016-10-15T13:02:36.143Z,3332
2016-10-15T13:03:35.862Z,3860
2016-10-15T13:04:35.639Z,3880
2016-10-15T13:05:36.804Z,3532
2016-10-15T13:06:35.977Z,3508
2016-10-15T13:07:35.171Z,3704
2016-10-15T13:08:35.601Z,3964
2016-10-15T13:09:36.577Z,3868
2016-10-15T13:10:36.414Z,3596
2016-10-15T13:11:35.932Z,3496
2016-10-15T13:12:37.023Z,3324
2016-10-15T13:13:35.863Z,3492
2016-10-15T13:14:36.387Z,3968
2016-10-15T13:15:36.864Z,3984
2016-10-15T13:16:36.791Z,3452
2016-10-15T13:17:36.428Z,3140
2016-10-15T13:18:37.049Z,3060
2016-10-15T13:19:36.294Z,3172
2016-10-15T13:20:36.696Z,3456
2016-10-15T13:21:36.889Z,3720
2016-10-15T13:22:36.829Z,3776
2016-10-15T13:23:36.817Z,3756
2016-10-15T13:24:35.883Z,3628
2016-10-15T13:25:35.505Z,3364
2016-10-15T13:26:35.938Z,3104
2016-10-15T13:27:35.845Z,3132
2016-10-15T13:28:36.957Z,3284
2016-10-15T13:29:36.358Z,3500
2016-10-15T13:30:36.947Z,3376
2016-10-15T13:31:35.648Z,3356
2016-10-15T13:32:36.584Z,3528
2016-10-15T13:33:36.779Z,3756
2016-10-15T13:34:36.011Z,3780
2016-10-15T13:35:37.367Z,3516
2016-10-15T13:36:37.501Z,3460
2016-10-15T13:37:39.089Z,3616
2016-10-15T13:38:36.642Z,3688
2016-10-15T13:39:36.960Z,3696
2016-10-15T13:40:37.443Z,3672
2016-10-15T13:41:37.146Z,3600
2016-10-15T13:42:35.942Z,3516
2016-10-15T13:43:37.927Z,3292
2016-10-15T13:44:36.920Z,3068
2016-10-15T13:45:36.828Z,2928
2016-10-15T13:46:37.838Z,2852
2016-10-15T13:47:37.510Z,2756
2016-10-15T13:48:37.687Z,2676
2016-10-15T13:49:38.530Z,2776
2016-10-15T13:50:39.645Z,2888